sensor_id;sensor_type;location;lat;lon;timestamp;temperature;humidity
32839;DHT22;19182;41.820;12.808;2024-02-21T00:04:59;6.00;99.90
32839;DHT22;19182;41.820;12.808;2024-02-21T00:17:10;6.40;99.90
32839;DHT22;19182;41.820;12.808;2024-02-21T00:22:04;6.30;99.90
32839;DHT22;19182;41.820;12.808;2024-02-21T00:24:30;6.30;99.90
32839;DHT22;19182;41.820;12.808;2024-02-21T00:26:57;6.20;99.90
32839;DHT22;19182;41.820;12.808;2024-02-21T00:29:23;6.00;99.90
32839;DHT22;19182;41.820;12.808;2024-02-21T00:44:04;5.90;99.90
32839;DHT22;19182;41.820;12.808;2024-02-21T00:51:25;6.10;99.90
32839;DHT22;19182;41.820;12.808;2024-02-21T00:53:50;6.10;99.90
32839;DHT22;19182;41.820;12.808;2024-02-21T01:03:40;6.40;99.90
32839;DHT22;19182;41.820;12.808;2024-02-21T01:06:08;6.60;99.90
32839;DHT22;19182;41.820;12.808;2024-02-21T01:08:33;6.70;99.90
32839;DHT22;19182;41.820;12.808;2024-02-21T01:13:26;7.10;99.90
32839;DHT22;19182;41.820;12.808;2024-02-21T01:18:20;7.20;99.90
32839;DHT22;19182;41.820;12.808;2024-02-21T01:20:46;7.10;99.90
32839;DHT22;19182;41.820;12.808;2024-02-21T01:25:38;7.30;99.90
32839;DHT22;19182;41.820;12.808;2024-02-21T01:37:52;6.80;99.90
32839;DHT22;19182;41.820;12.808;2024-02-21T01:45:15;6.60;99.90
32839;DHT22;19182;41.820;12.808;2024-02-21T01:57:29;6.40;99.90
32839;DHT22;19182;41.820;12.808;2024-02-21T02:02:22;6.30;99.90
32839;DHT22;19182;41.820;12.808;2024-02-21T02:07:24;5.70;99.90
32839;DHT22;19182;41.820;12.808;2024-02-21T02:09:50;5.70;99.90
32839;DHT22;19182;41.820;12.808;2024-02-21T02:24:36;5.70;99.90
32839;DHT22;19182;41.820;12.808;2024-02-21T02:29:37;5.70;99.90
32839;DHT22;19182;41.820;12.808;2024-02-21T02:37:00;5.60;99.90
32839;DHT22;19182;41.820;12.808;2024-02-21T02:39:26;5.60;99.90
32839;DHT22;19182;41.820;12.808;2024-02-21T02:44:21;5.50;99.90
32839;DHT22;19182;41.820;12.808;2024-02-21T02:54:09;5.40;99.90
32839;DHT22;19182;41.820;12.808;2024-02-21T03:03:54;5.50;99.90
32839;DHT22;19182;41.820;12.808;2024-02-21T03:28:43;4.70;99.90
32839;DHT22;19182;41.820;12.808;2024-02-21T03:33:42;4.40;99.90
32839;DHT22;19182;41.820;12.808;2024-02-21T03:36:14;4.10;99.90
32839;DHT22;19182;41.820;12.808;2024-02-21T03:53:22;4.00;99.90
32839;DHT22;19182;41.820;12.808;2024-02-21T03:58:14;4.20;99.90
32839;DHT22;19182;41.820;12.808;2024-02-21T04:03:09;4.10;99.90
32839;DHT22;19182;41.820;12.808;2024-02-21T04:05:35;4.20;99.90
32839;DHT22;19182;41.820;12.808;2024-02-21T04:08:04;4.10;99.90
32839;DHT22;19182;41.820;12.808;2024-02-21T04:13:03;3.80;99.90
32839;DHT22;19182;41.820;12.808;2024-02-21T04:15:29;3.80;99.90
32839;DHT22;19182;41.820;12.808;2024-02-21T04:18:03;3.70;99.90
32839;DHT22;19182;41.820;12.808;2024-02-21T04:20:32;3.70;99.90
32839;DHT22;19182;41.820;12.808;2024-02-21T04:22:58;3.70;99.90
32839;DHT22;19182;41.820;12.808;2024-02-21T04:25:24;3.90;99.90
32839;DHT22;19182;41.820;12.808;2024-02-21T04:27:50;3.70;99.90
32839;DHT22;19182;41.820;12.808;2024-02-21T04:30:17;4.10;99.90
32839;DHT22;19182;41.820;12.808;2024-02-21T04:35:09;4.00;99.90
32839;DHT22;19182;41.820;12.808;2024-02-21T04:37:35;4.10;99.90
32839;DHT22;19182;41.820;12.808;2024-02-21T04:40:01;4.10;99.90
32839;DHT22;19182;41.820;12.808;2024-02-21T04:42:26;4.20;99.90
32839;DHT22;19182;41.820;12.808;2024-02-21T04:47:20;3.90;99.90
32839;DHT22;19182;41.820;12.808;2024-02-21T04:49:46;3.90;99.90
32839;DHT22;19182;41.820;12.808;2024-02-21T04:54:41;3.80;99.90
32839;DHT22;19182;41.820;12.808;2024-02-21T04:57:08;3.80;99.90
32839;DHT22;19182;41.820;12.808;2024-02-21T04:59:35;3.90;99.90
32839;DHT22;19182;41.820;12.808;2024-02-21T05:04:31;3.90;99.90
32839;DHT22;19182;41.820;12.808;2024-02-21T05:06:56;3.90;99.90
32839;DHT22;19182;41.820;12.808;2024-02-21T05:09:22;4.00;99.90
32839;DHT22;19182;41.820;12.808;2024-02-21T05:11:48;3.90;99.90
32839;DHT22;19182;41.820;12.808;2024-02-21T05:14:15;3.90;99.90
32839;DHT22;19182;41.820;12.808;2024-02-21T05:16:42;4.00;99.90
32839;DHT22;19182;41.820;12.808;2024-02-21T05:19:09;3.90;99.90
32839;DHT22;19182;41.820;12.808;2024-02-21T05:21:36;3.80;99.90
32839;DHT22;19182;41.820;12.808;2024-02-21T05:24:03;3.60;99.90
32839;DHT22;19182;41.820;12.808;2024-02-21T05:26:29;3.60;99.90
32839;DHT22;19182;41.820;12.808;2024-02-21T05:28:55;3.70;99.90
32839;DHT22;19182;41.820;12.808;2024-02-21T05:31:21;3.60;99.90
32839;DHT22;19182;41.820;12.808;2024-02-21T05:33:47;3.60;99.90
32839;DHT22;19182;41.820;12.808;2024-02-21T05:36:13;3.50;99.90
32839;DHT22;19182;41.820;12.808;2024-02-21T05:38:39;3.50;99.90
32839;DHT22;19182;41.820;12.808;2024-02-21T05:41:05;3.50;99.90
32839;DHT22;19182;41.820;12.808;2024-02-21T05:43:32;3.50;99.90
32839;DHT22;19182;41.820;12.808;2024-02-21T05:45:58;3.50;99.90
32839;DHT22;19182;41.820;12.808;2024-02-21T05:48:24;3.30;99.90
32839;DHT22;19182;41.820;12.808;2024-02-21T05:50:50;3.30;99.90
32839;DHT22;19182;41.820;12.808;2024-02-21T05:53:17;3.30;99.90
32839;DHT22;19182;41.820;12.808;2024-02-21T05:55:43;3.30;99.90
32839;DHT22;19182;41.820;12.808;2024-02-21T05:58:10;3.40;99.90
32839;DHT22;19182;41.820;12.808;2024-02-21T06:00:40;3.60;99.90
32839;DHT22;19182;41.820;12.808;2024-02-21T06:08:04;3.50;99.90
32839;DHT22;19182;41.820;12.808;2024-02-21T06:10:30;3.50;99.90
32839;DHT22;19182;41.820;12.808;2024-02-21T06:12:57;3.50;99.90
32839;DHT22;19182;41.820;12.808;2024-02-21T06:15:23;3.50;99.90
32839;DHT22;19182;41.820;12.808;2024-02-21T06:17:48;3.40;99.90
32839;DHT22;19182;41.820;12.808;2024-02-21T06:20:34;3.40;99.90
32839;DHT22;19182;41.820;12.808;2024-02-21T06:23:02;3.40;99.90
32839;DHT22;19182;41.820;12.808;2024-02-21T06:25:28;3.40;99.90
32839;DHT22;19182;41.820;12.808;2024-02-21T06:27:54;3.50;99.90
32839;DHT22;19182;41.820;12.808;2024-02-21T06:30:20;3.50;99.90
32839;DHT22;19182;41.820;12.808;2024-02-21T06:32:45;3.60;99.90
32839;DHT22;19182;41.820;12.808;2024-02-21T06:35:13;3.60;99.90
32839;DHT22;19182;41.820;12.808;2024-02-21T06:37:39;3.80;99.90
32839;DHT22;19182;41.820;12.808;2024-02-21T06:40:06;3.80;99.90
32839;DHT22;19182;41.820;12.808;2024-02-21T06:42:33;3.80;99.90
32839;DHT22;19182;41.820;12.808;2024-02-21T06:44:59;4.20;99.90
32839;DHT22;19182;41.820;12.808;2024-02-21T06:47:24;5.80;99.90
32839;DHT22;19182;41.820;12.808;2024-02-21T06:49:50;5.80;99.90
32839;DHT22;19182;41.820;12.808;2024-02-21T06:52:20;7.10;99.90
32839;DHT22;19182;41.820;12.808;2024-02-21T06:54:49;8.30;99.90
32839;DHT22;19182;41.820;12.808;2024-02-21T06:57:15;9.50;99.90
32839;DHT22;19182;41.820;12.808;2024-02-21T06:59:42;10.40;99.90
32839;DHT22;19182;41.820;12.808;2024-02-21T07:02:08;11.20;99.90
32839;DHT22;19182;41.820;12.808;2024-02-21T07:04:34;11.40;99.90
32839;DHT22;19182;41.820;12.808;2024-02-21T07:07:01;12.40;99.90
32839;DHT22;19182;41.820;12.808;2024-02-21T07:09:27;13.20;99.90
32839;DHT22;19182;41.820;12.808;2024-02-21T07:11:54;13.90;99.90
32839;DHT22;19182;41.820;12.808;2024-02-21T07:14:21;14.80;99.90
32839;DHT22;19182;41.820;12.808;2024-02-21T07:16:52;15.60;99.90
32839;DHT22;19182;41.820;12.808;2024-02-21T07:19:19;16.60;99.90
32839;DHT22;19182;41.820;12.808;2024-02-21T07:21:45;17.50;99.90
32839;DHT22;19182;41.820;12.808;2024-02-21T07:24:11;18.30;99.90
32839;DHT22;19182;41.820;12.808;2024-02-21T07:26:40;19.00;99.90
32839;DHT22;19182;41.820;12.808;2024-02-21T07:29:07;19.40;99.30
32839;DHT22;19182;41.820;12.808;2024-02-21T07:31:40;20.00;96.40
32839;DHT22;19182;41.820;12.808;2024-02-21T07:34:06;20.70;93.60
32839;DHT22;19182;41.820;12.808;2024-02-21T07:36:32;21.00;94.00
32839;DHT22;19182;41.820;12.808;2024-02-21T07:38:57;21.50;93.60
32839;DHT22;19182;41.820;12.808;2024-02-21T07:41:25;21.90;92.20
32839;DHT22;19182;41.820;12.808;2024-02-21T07:43:50;22.20;88.20
32839;DHT22;19182;41.820;12.808;2024-02-21T07:46:18;22.50;82.40
32839;DHT22;19182;41.820;12.808;2024-02-21T07:48:46;21.90;80.50
32839;DHT22;19182;41.820;12.808;2024-02-21T07:51:14;22.30;77.30
32839;DHT22;19182;41.820;12.808;2024-02-21T07:53:42;22.70;75.50
32839;DHT22;19182;41.820;12.808;2024-02-21T07:56:12;23.40;74.40
32839;DHT22;19182;41.820;12.808;2024-02-21T07:58:39;23.70;74.10
32839;DHT22;19182;41.820;12.808;2024-02-21T08:01:06;24.10;70.90
32839;DHT22;19182;41.820;12.808;2024-02-21T08:03:32;24.70;67.40
32839;DHT22;19182;41.820;12.808;2024-02-21T08:05:57;25.20;65.60
32839;DHT22;19182;41.820;12.808;2024-02-21T08:08:24;25.70;62.80
32839;DHT22;19182;41.820;12.808;2024-02-21T08:10:52;26.10;61.30
32839;DHT22;19182;41.820;12.808;2024-02-21T08:13:26;25.90;60.00
32839;DHT22;19182;41.820;12.808;2024-02-21T08:15:54;26.80;58.10
32839;DHT22;19182;41.820;12.808;2024-02-21T08:18:22;26.70;56.50
32839;DHT22;19182;41.820;12.808;2024-02-21T08:20:49;26.80;58.90
32839;DHT22;19182;41.820;12.808;2024-02-21T08:23:19;27.60;58.00
32839;DHT22;19182;41.820;12.808;2024-02-21T08:25:45;28.10;58.20
32839;DHT22;19182;41.820;12.808;2024-02-21T08:28:11;28.40;53.40
32839;DHT22;19182;41.820;12.808;2024-02-21T08:30:40;29.00;53.30
32839;DHT22;19182;41.820;12.808;2024-02-21T08:33:14;29.00;52.50
32839;DHT22;19182;41.820;12.808;2024-02-21T08:35:41;28.30;53.90
32839;DHT22;19182;41.820;12.808;2024-02-21T08:38:07;28.70;53.60
32839;DHT22;19182;41.820;12.808;2024-02-21T08:40:34;29.30;52.60
32839;DHT22;19182;41.820;12.808;2024-02-21T08:43:01;29.60;52.20
32839;DHT22;19182;41.820;12.808;2024-02-21T08:45:29;30.50;51.50
32839;DHT22;19182;41.820;12.808;2024-02-21T08:47:56;30.40;48.90
32839;DHT22;19182;41.820;12.808;2024-02-21T08:50:23;30.60;48.80
32839;DHT22;19182;41.820;12.808;2024-02-21T08:52:50;30.60;47.70
32839;DHT22;19182;41.820;12.808;2024-02-21T08:55:15;30.50;48.30
32839;DHT22;19182;41.820;12.808;2024-02-21T08:57:42;30.40;47.20
32839;DHT22;19182;41.820;12.808;2024-02-21T09:00:08;30.10;47.50
32839;DHT22;19182;41.820;12.808;2024-02-21T09:02:42;29.50;47.80
32839;DHT22;19182;41.820;12.808;2024-02-21T09:05:08;29.60;47.20
32839;DHT22;19182;41.820;12.808;2024-02-21T09:07:40;30.20;47.90
32839;DHT22;19182;41.820;12.808;2024-02-21T09:10:13;31.50;46.70
32839;DHT22;19182;41.820;12.808;2024-02-21T09:12:38;31.70;44.70
32839;DHT22;19182;41.820;12.808;2024-02-21T09:15:06;32.30;44.60
32839;DHT22;19182;41.820;12.808;2024-02-21T09:17:32;32.80;43.50
32839;DHT22;19182;41.820;12.808;2024-02-21T09:20:01;32.30;43.80
32839;DHT22;19182;41.820;12.808;2024-02-21T09:22:30;31.70;43.10
32839;DHT22;19182;41.820;12.808;2024-02-21T09:24:57;31.30;42.60
32839;DHT22;19182;41.820;12.808;2024-02-21T09:27:23;30.90;44.30
32839;DHT22;19182;41.820;12.808;2024-02-21T09:29:50;31.80;44.00
32839;DHT22;19182;41.820;12.808;2024-02-21T09:32:16;31.60;43.00
32839;DHT22;19182;41.820;12.808;2024-02-21T09:34:42;30.90;43.30
32839;DHT22;19182;41.820;12.808;2024-02-21T09:37:11;31.20;43.90
32839;DHT22;19182;41.820;12.808;2024-02-21T09:39:36;31.60;42.60
32839;DHT22;19182;41.820;12.808;2024-02-21T09:42:12;33.00;40.90
32839;DHT22;19182;41.820;12.808;2024-02-21T09:44:47;33.40;40.90
32839;DHT22;19182;41.820;12.808;2024-02-21T09:47:36;34.20;39.30
32839;DHT22;19182;41.820;12.808;2024-02-21T09:50:07;34.10;38.50
32839;DHT22;19182;41.820;12.808;2024-02-21T09:52:35;33.60;40.40
32839;DHT22;19182;41.820;12.808;2024-02-21T09:55:04;33.80;39.30
32839;DHT22;19182;41.820;12.808;2024-02-21T09:57:33;33.20;38.10
32839;DHT22;19182;41.820;12.808;2024-02-21T09:59:58;32.90;39.00
32839;DHT22;19182;41.820;12.808;2024-02-21T10:02:28;33.30;39.90
32839;DHT22;19182;41.820;12.808;2024-02-21T10:04:56;34.20;38.60
32839;DHT22;19182;41.820;12.808;2024-02-21T10:07:27;34.40;38.10
32839;DHT22;19182;41.820;12.808;2024-02-21T10:10:03;33.50;36.20
32839;DHT22;19182;41.820;12.808;2024-02-21T10:12:29;34.10;38.00
32839;DHT22;19182;41.820;12.808;2024-02-21T10:15:02;34.20;36.00
32839;DHT22;19182;41.820;12.808;2024-02-21T10:17:28;33.80;37.00
32839;DHT22;19182;41.820;12.808;2024-02-21T10:19:54;33.80;37.70
32839;DHT22;19182;41.820;12.808;2024-02-21T10:22:20;35.20;36.90
32839;DHT22;19182;41.820;12.808;2024-02-21T10:24:53;35.20;35.90
32839;DHT22;19182;41.820;12.808;2024-02-21T10:27:23;34.50;36.90
32839;DHT22;19182;41.820;12.808;2024-02-21T10:29:51;34.40;36.50
32839;DHT22;19182;41.820;12.808;2024-02-21T10:32:18;34.60;37.10
32839;DHT22;19182;41.820;12.808;2024-02-21T10:34:44;34.30;37.60
32839;DHT22;19182;41.820;12.808;2024-02-21T10:37:15;34.00;37.50
32839;DHT22;19182;41.820;12.808;2024-02-21T10:39:41;34.00;36.60
32839;DHT22;19182;41.820;12.808;2024-02-21T10:42:11;34.30;36.60
32839;DHT22;19182;41.820;12.808;2024-02-21T10:44:38;33.80;37.70
32839;DHT22;19182;41.820;12.808;2024-02-21T10:47:11;34.30;38.40
32839;DHT22;19182;41.820;12.808;2024-02-21T10:49:40;35.00;36.70
32839;DHT22;19182;41.820;12.808;2024-02-21T10:55:37;33.90;37.70
32839;DHT22;19182;41.820;12.808;2024-02-21T10:58:06;33.90;38.20
32839;DHT22;19182;41.820;12.808;2024-02-21T11:00:33;33.70;40.40
32839;DHT22;19182;41.820;12.808;2024-02-21T11:03:00;33.90;40.50
32839;DHT22;19182;41.820;12.808;2024-02-21T11:05:26;33.40;41.60
32839;DHT22;19182;41.820;12.808;2024-02-21T11:08:05;33.10;43.30
32839;DHT22;19182;41.820;12.808;2024-02-21T11:10:38;33.70;42.10
32839;DHT22;19182;41.820;12.808;2024-02-21T11:13:07;34.40;42.00
32839;DHT22;19182;41.820;12.808;2024-02-21T11:15:33;33.80;42.10
32839;DHT22;19182;41.820;12.808;2024-02-21T11:17:59;34.10;41.80
32839;DHT22;19182;41.820;12.808;2024-02-21T11:20:32;33.20;42.10
32839;DHT22;19182;41.820;12.808;2024-02-21T11:23:00;33.50;42.00
32839;DHT22;19182;41.820;12.808;2024-02-21T11:25:26;33.90;42.40
32839;DHT22;19182;41.820;12.808;2024-02-21T11:28:04;32.90;42.50
32839;DHT22;19182;41.820;12.808;2024-02-21T11:30:32;33.10;41.60
32839;DHT22;19182;41.820;12.808;2024-02-21T11:33:02;33.20;41.30
32839;DHT22;19182;41.820;12.808;2024-02-21T11:35:36;32.40;41.90
32839;DHT22;19182;41.820;12.808;2024-02-21T11:38:15;32.90;41.50
32839;DHT22;19182;41.820;12.808;2024-02-21T11:40:46;33.50;41.10
32839;DHT22;19182;41.820;12.808;2024-02-21T11:43:18;33.70;40.60
32839;DHT22;19182;41.820;12.808;2024-02-21T11:45:45;34.00;40.80
32839;DHT22;19182;41.820;12.808;2024-02-21T11:48:12;33.10;40.60
32839;DHT22;19182;41.820;12.808;2024-02-21T11:50:39;34.00;40.20
32839;DHT22;19182;41.820;12.808;2024-02-21T11:53:06;34.10;40.40
32839;DHT22;19182;41.820;12.808;2024-02-21T11:55:31;33.30;41.10
32839;DHT22;19182;41.820;12.808;2024-02-21T11:57:57;33.90;41.00
32839;DHT22;19182;41.820;12.808;2024-02-21T12:00:25;33.90;39.50
32839;DHT22;19182;41.820;12.808;2024-02-21T12:02:51;33.50;40.80
32839;DHT22;19182;41.820;12.808;2024-02-21T12:05:21;33.50;39.60
32839;DHT22;19182;41.820;12.808;2024-02-21T12:07:49;33.10;40.40
32839;DHT22;19182;41.820;12.808;2024-02-21T12:10:14;33.60;39.00
32839;DHT22;19182;41.820;12.808;2024-02-21T12:12:42;33.40;39.30
32839;DHT22;19182;41.820;12.808;2024-02-21T12:15:08;32.80;39.80
32839;DHT22;19182;41.820;12.808;2024-02-21T12:17:36;32.80;40.10
32839;DHT22;19182;41.820;12.808;2024-02-21T12:20:03;32.80;39.90
32839;DHT22;19182;41.820;12.808;2024-02-21T12:22:38;32.70;38.80
32839;DHT22;19182;41.820;12.808;2024-02-21T12:25:16;32.80;39.90
32839;DHT22;19182;41.820;12.808;2024-02-21T12:27:46;33.60;38.90
32839;DHT22;19182;41.820;12.808;2024-02-21T12:30:12;32.00;39.30
32839;DHT22;19182;41.820;12.808;2024-02-21T12:32:39;31.50;38.90
32839;DHT22;19182;41.820;12.808;2024-02-21T12:35:05;32.30;39.60
32839;DHT22;19182;41.820;12.808;2024-02-21T12:37:32;32.60;39.80
32839;DHT22;19182;41.820;12.808;2024-02-21T12:39:59;32.70;39.70
32839;DHT22;19182;41.820;12.808;2024-02-21T12:42:26;33.30;39.00
32839;DHT22;19182;41.820;12.808;2024-02-21T12:44:52;33.40;37.60
32839;DHT22;19182;41.820;12.808;2024-02-21T12:47:20;32.50;39.40
32839;DHT22;19182;41.820;12.808;2024-02-21T12:49:49;32.50;39.30
32839;DHT22;19182;41.820;12.808;2024-02-21T12:52:16;32.80;38.70
32839;DHT22;19182;41.820;12.808;2024-02-21T12:54:42;33.10;37.60
32839;DHT22;19182;41.820;12.808;2024-02-21T12:57:12;33.60;38.10
32839;DHT22;19182;41.820;12.808;2024-02-21T12:59:39;33.30;38.20
32839;DHT22;19182;41.820;12.808;2024-02-21T13:02:06;33.20;37.80
32839;DHT22;19182;41.820;12.808;2024-02-21T13:04:33;33.40;39.20
32839;DHT22;19182;41.820;12.808;2024-02-21T13:07:00;33.20;37.70
32839;DHT22;19182;41.820;12.808;2024-02-21T13:09:27;33.60;38.20
32839;DHT22;19182;41.820;12.808;2024-02-21T13:11:53;32.70;38.20
32839;DHT22;19182;41.820;12.808;2024-02-21T13:14:25;32.70;39.30
32839;DHT22;19182;41.820;12.808;2024-02-21T13:16:51;36.00;40.60
32839;DHT22;19182;41.820;12.808;2024-02-21T13:19:18;33.50;39.30
32839;DHT22;19182;41.820;12.808;2024-02-21T13:21:46;33.20;38.90
32839;DHT22;19182;41.820;12.808;2024-02-21T13:24:13;33.20;38.20
32839;DHT22;19182;41.820;12.808;2024-02-21T13:26:39;33.50;38.90
32839;DHT22;19182;41.820;12.808;2024-02-21T13:29:07;32.50;38.20
32839;DHT22;19182;41.820;12.808;2024-02-21T13:31:34;32.40;38.20
32839;DHT22;19182;41.820;12.808;2024-02-21T13:33:59;33.00;38.80
32839;DHT22;19182;41.820;12.808;2024-02-21T13:36:25;33.10;37.80
32839;DHT22;19182;41.820;12.808;2024-02-21T13:38:53;32.90;37.90
32839;DHT22;19182;41.820;12.808;2024-02-21T13:41:21;33.40;38.00
32839;DHT22;19182;41.820;12.808;2024-02-21T13:43:56;31.80;37.80
32839;DHT22;19182;41.820;12.808;2024-02-21T13:46:22;31.40;39.40
32839;DHT22;19182;41.820;12.808;2024-02-21T13:48:54;29.30;41.10
32839;DHT22;19182;41.820;12.808;2024-02-21T13:51:28;27.00;42.00
32839;DHT22;19182;41.820;12.808;2024-02-21T13:53:54;25.10;46.00
32839;DHT22;19182;41.820;12.808;2024-02-21T13:56:22;24.50;47.40
32839;DHT22;19182;41.820;12.808;2024-02-21T13:58:49;24.30;48.10
32839;DHT22;19182;41.820;12.808;2024-02-21T14:01:16;24.00;48.70
32839;DHT22;19182;41.820;12.808;2024-02-21T14:03:43;23.40;49.60
32839;DHT22;19182;41.820;12.808;2024-02-21T14:06:10;22.70;50.70
32839;DHT22;19182;41.820;12.808;2024-02-21T14:08:37;22.50;50.40
32839;DHT22;19182;41.820;12.808;2024-02-21T14:11:07;21.80;51.40
32839;DHT22;19182;41.820;12.808;2024-02-21T14:13:34;21.30;52.60
32839;DHT22;19182;41.820;12.808;2024-02-21T14:16:00;21.10;53.60
32839;DHT22;19182;41.820;12.808;2024-02-21T14:18:26;20.70;53.20
32839;DHT22;19182;41.820;12.808;2024-02-21T14:20:56;20.30;52.90
32839;DHT22;19182;41.820;12.808;2024-02-21T14:23:23;20.30;54.80
32839;DHT22;19182;41.820;12.808;2024-02-21T14:25:49;19.70;54.60
32839;DHT22;19182;41.820;12.808;2024-02-21T14:28:15;19.60;56.20
32839;DHT22;19182;41.820;12.808;2024-02-21T14:30:44;17.80;56.90
32839;DHT22;19182;41.820;12.808;2024-02-21T14:33:14;19.20;57.20
32839;DHT22;19182;41.820;12.808;2024-02-21T14:35:40;19.00;56.40
32839;DHT22;19182;41.820;12.808;2024-02-21T14:38:16;18.70;57.30
32839;DHT22;19182;41.820;12.808;2024-02-21T14:40:46;18.70;56.40
32839;DHT22;19182;41.820;12.808;2024-02-21T14:43:12;18.40;56.40
32839;DHT22;19182;41.820;12.808;2024-02-21T14:45:38;18.50;57.40
32839;DHT22;19182;41.820;12.808;2024-02-21T14:48:06;18.40;58.70
32839;DHT22;19182;41.820;12.808;2024-02-21T14:50:34;18.20;58.70
32839;DHT22;19182;41.820;12.808;2024-02-21T14:53:01;18.00;57.70
32839;DHT22;19182;41.820;12.808;2024-02-21T14:55:27;17.80;60.00
32839;DHT22;19182;41.820;12.808;2024-02-21T14:57:54;17.70;60.30
32839;DHT22;19182;41.820;12.808;2024-02-21T15:00:21;17.70;60.90
32839;DHT22;19182;41.820;12.808;2024-02-21T15:05:23;17.30;66.00
32839;DHT22;19182;41.820;12.808;2024-02-21T15:07:49;17.00;67.40
32839;DHT22;19182;41.820;12.808;2024-02-21T15:12:48;17.10;70.40
32839;DHT22;19182;41.820;12.808;2024-02-21T15:15:32;17.00;71.10
32839;DHT22;19182;41.820;12.808;2024-02-21T15:20:24;16.90;73.50
32839;DHT22;19182;41.820;12.808;2024-02-21T15:22:51;16.90;74.30
32839;DHT22;19182;41.820;12.808;2024-02-21T15:25:17;16.80;74.80
32839;DHT22;19182;41.820;12.808;2024-02-21T15:27:47;16.80;75.80
32839;DHT22;19182;41.820;12.808;2024-02-21T15:32:44;16.70;75.60
32839;DHT22;19182;41.820;12.808;2024-02-21T15:35:09;16.60;76.90
32839;DHT22;19182;41.820;12.808;2024-02-21T15:37:39;16.50;77.80
32839;DHT22;19182;41.820;12.808;2024-02-21T15:40:11;16.50;78.20
32839;DHT22;19182;41.820;12.808;2024-02-21T15:42:38;16.40;79.40
32839;DHT22;19182;41.820;12.808;2024-02-21T15:45:03;16.20;80.70
32839;DHT22;19182;41.820;12.808;2024-02-21T15:47:30;16.20;82.10
32839;DHT22;19182;41.820;12.808;2024-02-21T15:49:57;16.00;82.90
32839;DHT22;19182;41.820;12.808;2024-02-21T15:52:26;16.00;84.80
32839;DHT22;19182;41.820;12.808;2024-02-21T15:54:52;15.80;87.10
32839;DHT22;19182;41.820;12.808;2024-02-21T15:57:18;15.80;87.90
32839;DHT22;19182;41.820;12.808;2024-02-21T15:59:45;15.70;85.90
32839;DHT22;19182;41.820;12.808;2024-02-21T16:07:05;15.60;84.80
32839;DHT22;19182;41.820;12.808;2024-02-21T16:12:04;15.40;86.90
32839;DHT22;19182;41.820;12.808;2024-02-21T16:21:50;15.00;90.80
32839;DHT22;19182;41.820;12.808;2024-02-21T16:24:16;14.90;92.10
32839;DHT22;19182;41.820;12.808;2024-02-21T16:31:37;14.60;92.40
32839;DHT22;19182;41.820;12.808;2024-02-21T16:34:03;14.50;94.30
32839;DHT22;19182;41.820;12.808;2024-02-21T16:38:58;14.10;97.50
32839;DHT22;19182;41.820;12.808;2024-02-21T16:41:25;14.10;97.50
32839;DHT22;19182;41.820;12.808;2024-02-21T16:43:53;13.70;99.50
32839;DHT22;19182;41.820;12.808;2024-02-21T16:46:19;13.60;99.90
32839;DHT22;19182;41.820;12.808;2024-02-21T16:53:38;13.20;99.90
32839;DHT22;19182;41.820;12.808;2024-02-21T16:56:05;13.00;99.90
32839;DHT22;19182;41.820;12.808;2024-02-21T16:58:32;12.90;99.90
32839;DHT22;19182;41.820;12.808;2024-02-21T17:08:30;12.10;99.90
32839;DHT22;19182;41.820;12.808;2024-02-21T17:28:15;10.40;99.90
32839;DHT22;19182;41.820;12.808;2024-02-21T17:30:41;10.30;99.90
32839;DHT22;19182;41.820;12.808;2024-02-21T17:33:07;10.20;99.90
32839;DHT22;19182;41.820;12.808;2024-02-21T17:40:35;10.20;99.90
32839;DHT22;19182;41.820;12.808;2024-02-21T18:05:04;9.50;99.90
32839;DHT22;19182;41.820;12.808;2024-02-21T18:07:30;9.40;99.90
32839;DHT22;19182;41.820;12.808;2024-02-21T18:12:22;9.50;99.90
32839;DHT22;19182;41.820;12.808;2024-02-21T18:19:41;9.60;99.90
32839;DHT22;19182;41.820;12.808;2024-02-21T18:22:07;9.50;99.90
32839;DHT22;19182;41.820;12.808;2024-02-21T18:51:33;8.70;99.90
32839;DHT22;19182;41.820;12.808;2024-02-21T18:53:59;8.70;99.90
32839;DHT22;19182;41.820;12.808;2024-02-21T18:56:25;8.70;99.90
32839;DHT22;19182;41.820;12.808;2024-02-21T19:01:23;8.70;99.90
32839;DHT22;19182;41.820;12.808;2024-02-21T19:06:16;8.70;99.90
32839;DHT22;19182;41.820;12.808;2024-02-21T19:08:42;8.60;99.90
32839;DHT22;19182;41.820;12.808;2024-02-21T19:35:35;8.00;99.90
32839;DHT22;19182;41.820;12.808;2024-02-21T19:42:57;7.80;99.90
32839;DHT22;19182;41.820;12.808;2024-02-21T19:57:51;7.70;99.90
32839;DHT22;19182;41.820;12.808;2024-02-21T20:05:12;7.50;99.90
32839;DHT22;19182;41.820;12.808;2024-02-21T20:22:20;7.30;99.90
32839;DHT22;19182;41.820;12.808;2024-02-21T20:24:47;7.30;99.90
32839;DHT22;19182;41.820;12.808;2024-02-21T20:32:07;7.30;99.90
32839;DHT22;19182;41.820;12.808;2024-02-21T20:42:02;7.50;99.90
32839;DHT22;19182;41.820;12.808;2024-02-21T20:56:46;7.20;99.90
32839;DHT22;19182;41.820;12.808;2024-02-21T21:11:35;6.80;99.90
32839;DHT22;19182;41.820;12.808;2024-02-21T21:18:58;6.80;99.90
32839;DHT22;19182;41.820;12.808;2024-02-21T21:26:19;6.60;99.90
32839;DHT22;19182;41.820;12.808;2024-02-21T21:31:13;6.40;99.90
32839;DHT22;19182;41.820;12.808;2024-02-21T21:38:34;7.10;99.90
32839;DHT22;19182;41.820;12.808;2024-02-21T21:43:34;6.30;99.90
32839;DHT22;19182;41.820;12.808;2024-02-21T21:48:29;6.40;99.90
32839;DHT22;19182;41.820;12.808;2024-02-21T21:55:54;5.90;99.90
32839;DHT22;19182;41.820;12.808;2024-02-21T22:00:47;6.00;99.90
32839;DHT22;19182;41.820;12.808;2024-02-21T22:03:15;6.10;99.90
32839;DHT22;19182;41.820;12.808;2024-02-21T22:05:40;6.10;99.90
32839;DHT22;19182;41.820;12.808;2024-02-21T22:10:33;6.20;99.90
32839;DHT22;19182;41.820;12.808;2024-02-21T22:12:59;6.20;99.90
32839;DHT22;19182;41.820;12.808;2024-02-21T22:17:56;6.20;99.90
32839;DHT22;19182;41.820;12.808;2024-02-21T22:20:26;6.40;99.90
32839;DHT22;19182;41.820;12.808;2024-02-21T22:25:19;6.30;99.90
32839;DHT22;19182;41.820;12.808;2024-02-21T22:27:45;6.20;99.90
32839;DHT22;19182;41.820;12.808;2024-02-21T22:32:36;6.00;99.90
32839;DHT22;19182;41.820;12.808;2024-02-21T22:37:46;5.70;99.90
32839;DHT22;19182;41.820;12.808;2024-02-21T22:42:40;5.80;99.90
32839;DHT22;19182;41.820;12.808;2024-02-21T22:47:34;5.90;99.90
32839;DHT22;19182;41.820;12.808;2024-02-21T22:59:47;5.70;99.90
32839;DHT22;19182;41.820;12.808;2024-02-21T23:22:00;5.40;99.90
32839;DHT22;19182;41.820;12.808;2024-02-21T23:24:26;5.30;99.90
32839;DHT22;19182;41.820;12.808;2024-02-21T23:39:07;5.00;99.90